Time;durP1;ratioP1;P1;durP2;ratioP2;P2;SDS_P1;SDS_P2;PMS_P1;PMS_P2;Temp;Humidity;BMP_temperature;BMP_pressure;BME280_temperature;BME280_humidity;BME280_pressure;Samples;Min_cycle;Max_cycle;Signal;HPM_P1;HPM_P2
2022/04/19 00:00:18;;;;;;;9.27;6.60;;;;;;;;;;4859265;29;20037;-84
2022/04/19 00:02:44;;;;;;;9.55;6.85;;;;;;;;;;4855509;29;20062;-81
2022/04/19 00:05:09;;;;;;;10.32;7.40;;;;;;;;;;4851862;29;20454;-81
2022/04/19 00:07:36;;;;;;;11.20;7.68;;;;;;;;;;4839353;29;20036;-81
2022/04/19 00:10:02;;;;;;;8.65;6.72;;;;;;;;;;4855402;29;20116;-86
2022/04/19 00:12:27;;;;;;;10.48;6.95;;;;;;;;;;4850594;29;20132;-82
2022/04/19 00:14:52;;;;;;;10.15;6.85;;;;;;;;;;4857188;29;20034;-86
2022/04/19 00:17:19;;;;;;;9.18;7.03;;;;;;;;;;4854438;29;20558;-81
2022/04/19 00:19:44;;;;;;;10.23;7.50;;;;;;;;;;4838467;29;20064;-82
2022/04/19 00:22:10;;;;;;;9.68;7.60;;;;;;;;;;4843949;29;20029;-85
2022/04/19 00:24:35;;;;;;;10.15;7.95;;;;;;;;;;4854488;29;20479;-81
2022/04/19 00:27:00;;;;;;;12.00;9.10;;;;;;;;;;4856588;29;20432;-82
2022/04/19 00:29:26;;;;;;;12.98;8.75;;;;;;;;;;4841551;29;21465;-81
2022/04/19 00:31:51;;;;;;;12.70;8.45;;;;;;;;;;4849844;29;20033;-82
2022/04/19 00:34:16;;;;;;;10.75;8.32;;;;;;;;;;4853032;29;20099;-81
2022/04/19 00:36:42;;;;;;;11.85;8.00;;;;;;;;;;4837741;29;20032;-87
2022/04/19 00:39:07;;;;;;;10.65;8.43;;;;;;;;;;4837762;29;20062;-85
2022/04/19 00:41:32;;;;;;;12.82;8.82;;;;;;;;;;4857219;29;20195;-87
2022/04/19 00:43:58;;;;;;;10.10;8.30;;;;;;;;;;4851407;29;20078;-82
2022/04/19 00:46:24;;;;;;;10.15;7.93;;;;;;;;;;4853952;29;20032;-82
2022/04/19 00:48:52;;;;;;;11.90;8.93;;;;;;;;;;4855208;29;20037;-81
2022/04/19 00:51:19;;;;;;;10.98;8.27;;;;;;;;;;4855880;29;20033;-81
2022/04/19 00:53:47;;;;;;;9.88;8.32;;;;;;;;;;4852370;29;20041;-88
2022/04/19 00:56:12;;;;;;;12.10;8.70;;;;;;;;;;4857845;29;20034;-81
2022/04/19 00:58:38;;;;;;;11.15;8.48;;;;;;;;;;4852098;29;20029;-81
2022/04/19 01:01:03;;;;;;;11.02;8.20;;;;;;;;;;4854712;29;20033;-81
2022/04/19 01:03:28;;;;;;;10.98;8.30;;;;;;;;;;4831466;29;20033;-82
2022/04/19 01:05:55;;;;;;;11.85;8.40;;;;;;;;;;4851951;29;20034;-81
2022/04/19 01:08:22;;;;;;;11.95;8.57;;;;;;;;;;4839736;29;20040;-81
2022/04/19 01:10:48;;;;;;;11.82;9.18;;;;;;;;;;4853940;29;20041;-82
2022/04/19 01:13:17;;;;;;;11.40;9.25;;;;;;;;;;4835934;29;20092;-81
2022/04/19 01:15:47;;;;;;;12.48;9.75;;;;;;;;;;4855224;29;20106;-81
2022/04/19 01:18:13;;;;;;;11.93;9.18;;;;;;;;;;4844819;29;20781;-82
2022/04/19 01:20:39;;;;;;;13.13;9.57;;;;;;;;;;4854425;29;20496;-84
2022/04/19 01:23:05;;;;;;;12.73;9.55;;;;;;;;;;4833119;29;20049;-84
2022/04/19 01:25:30;;;;;;;13.20;9.85;;;;;;;;;;4850706;29;20037;-82
2022/04/19 01:27:55;;;;;;;12.88;9.35;;;;;;;;;;4853242;29;20052;-81
2022/04/19 01:30:21;;;;;;;12.45;9.63;;;;;;;;;;4834087;29;20093;-82
2022/04/19 01:32:46;;;;;;;13.63;9.82;;;;;;;;;;4855229;29;20048;-84
2022/04/19 01:35:17;;;;;;;13.23;9.63;;;;;;;;;;4852945;29;20116;-87
2022/04/19 01:37:46;;;;;;;13.05;10.05;;;;;;;;;;4830552;29;20044;-81
2022/04/19 01:40:18;;;;;;;11.93;9.57;;;;;;;;;;4850946;29;20047;-85
2022/04/19 01:42:53;;;;;;;11.98;9.43;;;;;;;;;;4849834;29;20397;-84
2022/04/19 01:45:23;;;;;;;11.82;9.40;;;;;;;;;;4851357;29;20034;-82
2022/04/19 01:47:50;;;;;;;12.48;9.80;;;;;;;;;;4850362;29;20033;-85
2022/04/19 01:50:16;;;;;;;12.25;10.25;;;;;;;;;;4853749;29;20124;-87
2022/04/19 01:52:43;;;;;;;13.23;10.27;;;;;;;;;;4835888;29;20178;-88
2022/04/19 01:55:13;;;;;;;13.18;10.07;;;;;;;;;;4850711;29;20034;-87
2022/04/19 01:57:47;;;;;;;12.52;9.77;;;;;;;;;;4833838;29;20029;-85
2022/04/19 02:00:13;;;;;;;15.60;10.52;;;;;;;;;;4852754;29;20411;-87
2022/04/19 02:02:39;;;;;;;12.73;9.35;;;;;;;;;;4851337;29;20026;-88
2022/04/19 02:05:05;;;;;;;11.13;9.18;;;;;;;;;;4852950;29;20045;-81
2022/04/19 02:07:33;;;;;;;13.20;9.38;;;;;;;;;;4850655;29;20396;-88
2022/04/19 02:10:00;;;;;;;12.63;9.90;;;;;;;;;;4850775;29;20620;-87
2022/04/19 02:12:26;;;;;;;13.80;9.38;;;;;;;;;;4853281;29;20041;-83
2022/04/19 02:14:51;;;;;;;13.13;9.43;;;;;;;;;;4849744;29;20040;-82
2022/04/19 02:17:20;;;;;;;12.38;9.63;;;;;;;;;;4856798;29;20033;-81
2022/04/19 02:19:47;;;;;;;12.32;9.57;;;;;;;;;;4855820;29;20096;-81
2022/04/19 02:22:13;;;;;;;12.10;9.65;;;;;;;;;;4838419;29;20499;-86
2022/04/19 02:24:39;;;;;;;13.18;10.32;;;;;;;;;;4855443;29;20029;-85
2022/04/19 02:27:05;;;;;;;13.48;10.35;;;;;;;;;;4840475;29;20407;-82
2022/04/19 02:29:31;;;;;;;13.40;10.27;;;;;;;;;;4838746;29;20033;-87
2022/04/19 02:31:57;;;;;;;12.30;9.70;;;;;;;;;;4840696;29;20490;-84
2022/04/19 02:34:22;;;;;;;11.57;9.73;;;;;;;;;;4856181;29;20109;-82
2022/04/19 02:36:48;;;;;;;12.45;9.82;;;;;;;;;;4841711;29;20025;-87
2022/04/19 02:39:13;;;;;;;12.57;9.73;;;;;;;;;;4852478;29;20037;-82
2022/04/19 02:41:39;;;;;;;12.70;10.05;;;;;;;;;;4851880;29;20029;-81
2022/04/19 02:44:08;;;;;;;12.80;10.27;;;;;;;;;;4853314;29;20021;-81
2022/04/19 02:46:35;;;;;;;12.07;9.57;;;;;;;;;;4855464;29;20034;-85
2022/04/19 02:49:02;;;;;;;12.73;9.65;;;;;;;;;;4854260;29;20485;-87
2022/04/19 02:51:28;;;;;;;14.50;9.73;;;;;;;;;;4843715;29;20063;-87
2022/04/19 02:53:53;;;;;;;12.93;10.20;;;;;;;;;;4851314;29;20432;-84
2022/04/19 02:56:19;;;;;;;13.20;9.85;;;;;;;;;;4854166;29;20040;-81
2022/04/19 02:58:45;;;;;;;14.65;10.45;;;;;;;;;;4849873;29;20040;-81
2022/04/19 03:01:11;;;;;;;13.05;10.30;;;;;;;;;;4858224;29;20033;-82
2022/04/19 03:03:37;;;;;;;12.57;9.18;;;;;;;;;;4857182;29;20044;-87
2022/04/19 03:06:03;;;;;;;12.98;9.73;;;;;;;;;;4853503;29;20025;-82
2022/04/19 03:08:28;;;;;;;13.77;9.95;;;;;;;;;;4850244;29;20029;-87
2022/04/19 03:10:55;;;;;;;13.50;9.75;;;;;;;;;;4854773;29;20436;-85
2022/04/19 03:13:20;;;;;;;13.25;9.75;;;;;;;;;;4841356;29;20495;-81
2022/04/19 03:15:45;;;;;;;13.63;9.85;;;;;;;;;;4855398;29;20045;-82
2022/04/19 03:18:10;;;;;;;12.75;9.70;;;;;;;;;;4855685;29;20033;-88
2022/04/19 03:20:36;;;;;;;12.73;9.73;;;;;;;;;;4839959;29;20438;-81
2022/04/19 03:28:29;;;;;;;12.48;9.15;;;;;;;;;;4857637;29;20510;-81
2022/04/19 03:30:54;;;;;;;12.90;9.60;;;;;;;;;;4853582;29;20059;-84
2022/04/19 03:33:20;;;;;;;11.48;9.18;;;;;;;;;;4849720;29;20400;-86
2022/04/19 03:35:45;;;;;;;10.98;8.88;;;;;;;;;;4853742;29;20132;-80
2022/04/19 03:38:10;;;;;;;13.40;9.23;;;;;;;;;;4855642;29;20432;-82
2022/04/19 03:40:36;;;;;;;11.50;8.75;;;;;;;;;;4850511;29;20037;-82
2022/04/19 03:43:05;;;;;;;11.73;8.65;;;;;;;;;;4854146;29;20037;-84
2022/04/19 03:45:30;;;;;;;11.68;8.98;;;;;;;;;;4851855;29;20044;-83
2022/04/19 03:47:56;;;;;;;12.15;8.88;;;;;;;;;;4836107;29;20476;-87
2022/04/19 03:50:22;;;;;;;11.38;8.65;;;;;;;;;;4851355;29;20559;-81
2022/04/19 03:52:50;;;;;;;10.85;8.35;;;;;;;;;;4849923;29;20052;-82
2022/04/19 03:55:15;;;;;;;10.80;8.43;;;;;;;;;;4852774;29;20037;-82
2022/04/19 03:57:41;;;;;;;11.40;8.50;;;;;;;;;;4850496;29;20046;-81
2022/04/19 04:00:07;;;;;;;11.85;8.90;;;;;;;;;;4853761;29;20514;-85
2022/04/19 04:02:32;;;;;;;13.75;8.68;;;;;;;;;;4838771;29;20038;-82
2022/04/19 04:04:57;;;;;;;12.00;8.63;;;;;;;;;;4852462;29;20476;-84
2022/04/19 04:07:26;;;;;;;13.57;9.05;;;;;;;;;;4839747;29;20032;-81
2022/04/19 04:09:51;;;;;;;11.30;8.63;;;;;;;;;;4850250;29;20053;-81
2022/04/19 04:12:17;;;;;;;11.65;8.38;;;;;;;;;;4853609;29;20033;-87
2022/04/19 04:14:45;;;;;;;11.48;8.52;;;;;;;;;;4834926;29;20113;-87
2022/04/19 04:17:11;;;;;;;12.57;8.80;;;;;;;;;;4849392;29;20028;-85
2022/04/19 04:19:36;;;;;;;12.02;8.80;;;;;;;;;;4848997;29;20033;-82
2022/04/19 04:22:02;;;;;;;11.38;8.75;;;;;;;;;;4852353;29;20033;-82
2022/04/19 04:24:27;;;;;;;11.63;8.32;;;;;;;;;;4849734;29;20124;-82
2022/04/19 04:26:53;;;;;;;12.18;8.55;;;;;;;;;;4837520;29;20400;-81
2022/04/19 04:29:18;;;;;;;10.90;7.88;;;;;;;;;;4856234;29;20128;-87
2022/04/19 04:31:43;;;;;;;12.65;9.07;;;;;;;;;;4850999;29;20026;-81
2022/04/19 04:34:09;;;;;;;11.27;8.23;;;;;;;;;;4834748;29;20377;-80
2022/04/19 04:36:35;;;;;;;10.65;7.85;;;;;;;;;;4853950;29;20060;-87
2022/04/19 04:39:00;;;;;;;11.52;8.43;;;;;;;;;;4852458;29;20030;-88
2022/04/19 04:41:26;;;;;;;11.40;8.02;;;;;;;;;;4851564;29;20393;-84
2022/04/19 04:43:51;;;;;;;10.35;7.95;;;;;;;;;;4840985;29;20483;-81
2022/04/19 04:51:44;;;;;;;10.98;7.68;;;;;;;;;;4856008;29;20093;-81
2022/04/19 04:54:10;;;;;;;11.05;7.45;;;;;;;;;;4850785;29;20556;-81
2022/04/19 04:56:35;;;;;;;11.13;7.90;;;;;;;;;;4839866;29;20476;-81
2022/04/19 04:59:00;;;;;;;12.63;8.25;;;;;;;;;;4854485;29;20044;-88
2022/04/19 05:01:26;;;;;;;10.13;7.68;;;;;;;;;;4851880;29;20112;-86
2022/04/19 05:03:51;;;;;;;10.80;7.65;;;;;;;;;;4830195;29;20029;-81
2022/04/19 05:06:17;;;;;;;9.98;7.30;;;;;;;;;;4849579;29;20121;-87
2022/04/19 05:08:42;;;;;;;11.18;7.57;;;;;;;;;;4854716;29;20038;-87
2022/04/19 05:11:07;;;;;;;10.50;7.85;;;;;;;;;;4853210;29;20037;-83
2022/04/19 05:13:33;;;;;;;13.10;7.78;;;;;;;;;;4849218;29;20026;-81
2022/04/19 05:15:58;;;;;;;12.73;7.30;;;;;;;;;;4852431;29;20568;-81
2022/04/19 05:18:27;;;;;;;10.93;7.25;;;;;;;;;;4851810;29;20035;-87
2022/04/19 05:20:53;;;;;;;11.63;7.45;;;;;;;;;;4854157;29;20029;-87
2022/04/19 05:23:19;;;;;;;12.18;7.05;;;;;;;;;;4840000;29;20089;-81
2022/04/19 05:25:45;;;;;;;11.00;7.22;;;;;;;;;;4838480;29;20026;-83
2022/04/19 05:28:10;;;;;;;12.38;7.97;;;;;;;;;;4854830;29;20609;-80
2022/04/19 05:30:36;;;;;;;10.98;7.10;;;;;;;;;;4837251;29;20048;-80
2022/04/19 05:33:02;;;;;;;13.18;7.75;;;;;;;;;;4837333;29;20151;-80
2022/04/19 05:35:27;;;;;;;12.75;7.07;;;;;;;;;;4851721;29;20036;-80
2022/04/19 05:37:53;;;;;;;11.98;7.45;;;;;;;;;;4851286;29;20983;-80
2022/04/19 05:40:19;;;;;;;11.82;7.65;;;;;;;;;;4854856;29;20033;-81
2022/04/19 05:42:44;;;;;;;11.13;7.53;;;;;;;;;;4854922;29;20365;-82
2022/04/19 05:45:09;;;;;;;12.00;7.45;;;;;;;;;;4857594;29;20029;-80
2022/04/19 05:47:35;;;;;;;12.30;7.28;;;;;;;;;;4859858;29;20037;-86
2022/04/19 05:50:00;;;;;;;11.00;7.43;;;;;;;;;;4858344;29;20480;-80
2022/04/19 05:52:26;;;;;;;12.18;7.65;;;;;;;;;;4859875;29;20047;-81
2022/04/19 05:54:51;;;;;;;11.18;7.43;;;;;;;;;;4858207;29;20053;-81
2022/04/19 05:57:16;;;;;;;11.57;7.45;;;;;;;;;;4842841;29;20025;-80
2022/04/19 05:59:42;;;;;;;12.35;7.13;;;;;;;;;;4856582;29;20041;-82
2022/04/19 06:04:54;;;;;;;11.88;7.72;;;;;;;;;;4858110;29;20052;-81
2022/04/19 06:07:27;;;;;;;13.73;7.40;;;;;;;;;;4858089;29;20439;-81
2022/04/19 06:09:52;;;;;;;13.02;7.30;;;;;;;;;;4857907;29;20021;-83
2022/04/19 06:12:18;;;;;;;13.77;7.63;;;;;;;;;;4841547;29;20037;-82
2022/04/19 06:14:44;;;;;;;12.43;7.35;;;;;;;;;;4841474;29;20041;-83
2022/04/19 06:17:16;;;;;;;12.50;7.40;;;;;;;;;;4843146;29;20052;-80
2022/04/19 06:19:42;;;;;;;15.05;7.40;;;;;;;;;;4852654;29;20033;-83
2022/04/19 06:22:08;;;;;;;12.07;7.32;;;;;;;;;;4849702;29;20261;-82
2022/04/19 06:24:34;;;;;;;13.40;7.18;;;;;;;;;;4841473;29;20117;-86
2022/04/19 06:26:59;;;;;;;12.00;7.47;;;;;;;;;;4846805;29;20022;-83
2022/04/19 06:29:25;;;;;;;13.13;7.70;;;;;;;;;;4842452;29;20116;-83
2022/04/19 06:31:50;;;;;;;13.75;8.05;;;;;;;;;;4857216;29;20037;-86
2022/04/19 06:34:16;;;;;;;12.48;7.82;;;;;;;;;;4849378;29;20034;-86
2022/04/19 06:36:42;;;;;;;11.05;7.60;;;;;;;;;;4851777;29;20022;-85
2022/04/19 06:39:08;;;;;;;12.30;7.45;;;;;;;;;;4854986;29;20029;-83
2022/04/19 06:41:34;;;;;;;11.98;8.10;;;;;;;;;;4849540;29;20026;-80
2022/04/19 06:43:59;;;;;;;13.18;7.65;;;;;;;;;;4856317;29;20037;-88
2022/04/19 06:46:25;;;;;;;13.02;7.35;;;;;;;;;;4850296;29;20557;-79
2022/04/19 06:48:53;;;;;;;14.10;8.05;;;;;;;;;;4858056;29;20029;-81
2022/04/19 06:51:19;;;;;;;14.23;7.45;;;;;;;;;;4856361;29;20029;-85
2022/04/19 06:53:44;;;;;;;10.75;7.57;;;;;;;;;;4842763;29;20033;-84
2022/04/19 06:56:10;;;;;;;13.02;8.05;;;;;;;;;;4850850;29;20034;-82
2022/04/19 06:58:35;;;;;;;12.40;7.50;;;;;;;;;;4853169;29;20041;-82
2022/04/19 07:01:00;;;;;;;10.77;7.45;;;;;;;;;;4857633;29;20033;-82
2022/04/19 07:03:26;;;;;;;11.13;6.97;;;;;;;;;;4856747;29;20037;-85
2022/04/19 07:05:51;;;;;;;12.18;7.32;;;;;;;;;;4837823;29;20045;-84
2022/04/19 07:08:16;;;;;;;11.60;6.80;;;;;;;;;;4857999;29;20041;-84
2022/04/19 07:10:42;;;;;;;11.50;6.95;;;;;;;;;;4859773;29;20064;-80
2022/04/19 07:13:08;;;;;;;13.55;8.35;;;;;;;;;;4843839;29;20052;-81
2022/04/19 07:15:33;;;;;;;13.23;6.78;;;;;;;;;;4850017;29;20102;-87
2022/04/19 07:17:58;;;;;;;11.48;7.32;;;;;;;;;;4858071;29;20029;-83
2022/04/19 07:28:35;;;;;;;11.27;7.00;;;;;;;;;;4856719;29;20041;-82
2022/04/19 07:31:04;;;;;;;11.60;6.65;;;;;;;;;;4855670;29;20038;-82
2022/04/19 07:33:38;;;;;;;12.20;7.72;;;;;;;;;;4853669;29;20029;-87
2022/04/19 07:36:04;;;;;;;13.50;7.13;;;;;;;;;;4859377;29;20021;-81
2022/04/19 07:38:30;;;;;;;10.55;6.32;;;;;;;;;;4854747;29;20480;-81
2022/04/19 07:40:55;;;;;;;10.23;5.85;;;;;;;;;;4854851;29;20026;-81
2022/04/19 07:43:21;;;;;;;11.93;6.38;;;;;;;;;;4843457;29;20036;-81
2022/04/19 07:45:46;;;;;;;12.65;6.00;;;;;;;;;;4856329;29;20032;-80
2022/04/19 07:48:12;;;;;;;12.65;6.45;;;;;;;;;;4853509;29;20022;-79
2022/04/19 07:50:39;;;;;;;10.13;6.05;;;;;;;;;;4842952;29;20086;-80
2022/04/19 07:53:05;;;;;;;9.55;5.38;;;;;;;;;;4859988;29;20460;-80
2022/04/19 07:55:31;;;;;;;10.85;6.10;;;;;;;;;;4856841;29;20036;-83
2022/04/19 07:57:56;;;;;;;10.63;6.40;;;;;;;;;;4842984;29;20109;-84
2022/04/19 08:00:21;;;;;;;10.15;6.88;;;;;;;;;;4836599;29;20029;-87
2022/04/19 08:02:47;;;;;;;13.35;6.82;;;;;;;;;;4849264;29;20037;-83
2022/04/19 08:05:14;;;;;;;9.63;5.90;;;;;;;;;;4857002;29;20033;-86
2022/04/19 08:07:39;;;;;;;10.45;6.15;;;;;;;;;;4855623;29;20108;-81
2022/04/19 08:10:05;;;;;;;10.07;5.75;;;;;;;;;;4841835;29;20556;-83
2022/04/19 08:12:31;;;;;;;14.80;6.07;;;;;;;;;;4856618;29;20090;-80
2022/04/19 08:14:57;;;;;;;10.48;5.40;;;;;;;;;;4840764;29;20075;-87
2022/04/19 08:17:22;;;;;;;11.38;5.18;;;;;;;;;;4839775;29;20544;-86
2022/04/19 08:19:48;;;;;;;10.90;5.75;;;;;;;;;;4857920;29;20021;-80
2022/04/19 08:22:13;;;;;;;8.98;5.53;;;;;;;;;;4844284;29;20027;-83
2022/04/19 08:24:38;;;;;;;9.85;6.00;;;;;;;;;;4853625;29;20034;-81
2022/04/19 08:27:04;;;;;;;11.07;5.78;;;;;;;;;;4857476;29;20032;-80
2022/04/19 08:29:30;;;;;;;10.13;5.65;;;;;;;;;;4839003;29;20056;-86
2022/04/19 08:31:55;;;;;;;9.18;5.32;;;;;;;;;;4852200;29;20471;-80
2022/04/19 08:34:20;;;;;;;9.23;5.47;;;;;;;;;;4840265;29;20025;-81
2022/04/19 08:36:46;;;;;;;9.48;4.75;;;;;;;;;;4845760;29;20022;-84
2022/04/19 08:39:12;;;;;;;9.88;4.22;;;;;;;;;;4855747;29;20033;-80
2022/04/19 08:41:39;;;;;;;11.40;5.88;;;;;;;;;;4840779;29;20519;-85
2022/04/19 08:44:05;;;;;;;10.52;5.25;;;;;;;;;;4842594;29;20380;-88
2022/04/19 08:46:37;;;;;;;8.40;4.85;;;;;;;;;;4858198;29;20112;-81
2022/04/19 08:49:04;;;;;;;9.23;5.05;;;;;;;;;;4851208;29;20040;-81
2022/04/19 08:51:34;;;;;;;9.18;5.10;;;;;;;;;;4841917;29;20054;-86
2022/04/19 08:59:31;;;;;;;11.88;5.40;;;;;;;;;;4853982;29;20442;-86
2022/04/19 09:01:58;;;;;;;8.13;4.47;;;;;;;;;;4856794;29;20036;-84
2022/04/19 09:04:24;;;;;;;9.60;5.07;;;;;;;;;;4856300;29;20400;-80
2022/04/19 09:06:59;;;;;;;8.18;4.78;;;;;;;;;;4852958;29;20027;-84
2022/04/19 09:09:26;;;;;;;9.23;5.40;;;;;;;;;;4841580;29;20030;-84
2022/04/19 09:11:54;;;;;;;10.02;4.82;;;;;;;;;;4849136;29;20054;-87
2022/04/19 09:14:21;;;;;;;9.00;4.88;;;;;;;;;;4854414;29;20086;-81
2022/04/19 09:16:47;;;;;;;9.55;4.80;;;;;;;;;;4853392;29;20404;-80
2022/04/19 09:19:40;;;;;;;8.00;4.65;;;;;;;;;;4855948;29;20038;-88
2022/04/19 09:22:08;;;;;;;8.18;4.13;;;;;;;;;;4839193;29;20042;-81
2022/04/19 09:24:34;;;;;;;7.97;4.65;;;;;;;;;;4859373;29;20085;-81
2022/04/19 09:26:59;;;;;;;8.70;4.80;;;;;;;;;;4846569;29;20060;-80
2022/04/19 09:29:27;;;;;;;6.82;3.95;;;;;;;;;;4858311;29;20037;-87
2022/04/19 09:31:58;;;;;;;8.90;4.20;;;;;;;;;;4858376;29;20162;-81
2022/04/19 09:34:28;;;;;;;8.55;4.32;;;;;;;;;;4844515;29;20399;-87
2022/04/19 09:37:06;;;;;;;6.45;3.58;;;;;;;;;;4859911;29;20524;-88
2022/04/19 09:39:34;;;;;;;8.02;3.63;;;;;;;;;;4851706;29;20491;-86
2022/04/19 09:42:08;;;;;;;7.93;3.80;;;;;;;;;;4845404;29;20034;-88
2022/04/19 09:44:38;;;;;;;7.28;4.07;;;;;;;;;;4854406;29;20040;-81
2022/04/19 09:47:13;;;;;;;7.63;3.97;;;;;;;;;;4859954;29;20143;-86
2022/04/19 09:49:54;;;;;;;7.63;4.10;;;;;;;;;;4860513;29;20029;-83
2022/04/19 09:52:22;;;;;;;8.20;4.30;;;;;;;;;;4842663;29;20416;-86
2022/04/19 09:55:01;;;;;;;9.90;4.43;;;;;;;;;;4861432;29;20029;-84
2022/04/19 09:57:27;;;;;;;9.30;4.93;;;;;;;;;;4862833;29;20025;-88
2022/04/19 09:59:54;;;;;;;8.23;4.43;;;;;;;;;;4862620;29;20032;-81
2022/04/19 10:10:33;;;;;;;7.95;3.75;;;;;;;;;;4857038;29;20131;-85
2022/04/19 10:12:58;;;;;;;7.43;3.63;;;;;;;;;;4856565;29;20120;-81
2022/04/19 10:15:24;;;;;;;6.95;3.72;;;;;;;;;;4841127;29;20057;-81
2022/04/19 10:17:49;;;;;;;9.27;4.60;;;;;;;;;;4857495;29;20044;-80
2022/04/19 10:20:16;;;;;;;7.18;3.80;;;;;;;;;;4854107;29;20396;-80
2022/04/19 10:22:48;;;;;;;7.30;3.85;;;;;;;;;;4858145;29;20074;-81
2022/04/19 10:25:14;;;;;;;9.27;4.25;;;;;;;;;;4859623;29;20029;-84
2022/04/19 10:27:39;;;;;;;8.15;3.80;;;;;;;;;;4835046;29;20064;-84
2022/04/19 10:30:06;;;;;;;9.30;3.88;;;;;;;;;;4840893;29;20549;-81
2022/04/19 10:32:33;;;;;;;7.65;3.88;;;;;;;;;;4856645;29;20033;-86
2022/04/19 10:35:09;;;;;;;7.93;3.95;;;;;;;;;;4851182;29;20441;-84
2022/04/19 10:37:34;;;;;;;8.10;4.03;;;;;;;;;;4859725;29;20081;-80
2022/04/19 10:39:59;;;;;;;7.25;3.67;;;;;;;;;;4837672;29;20393;-90
2022/04/19 10:42:32;;;;;;;7.57;3.42;;;;;;;;;;4840471;29;20040;-80
2022/04/19 10:45:19;;;;;;;6.68;3.40;;;;;;;;;;4854257;29;20492;-83
2022/04/19 10:47:54;;;;;;;7.97;3.95;;;;;;;;;;4842223;29;20038;-86
2022/04/19 10:50:44;;;;;;;7.13;3.58;;;;;;;;;;4857888;29;20041;-81
2022/04/19 10:53:11;;;;;;;7.15;3.33;;;;;;;;;;4862109;29;20034;-86
2022/04/19 10:55:38;;;;;;;6.80;3.60;;;;;;;;;;4855513;29;20021;-84
2022/04/19 10:58:06;;;;;;;5.93;3.03;;;;;;;;;;4856501;29;20030;-85
2022/04/19 11:00:34;;;;;;;7.55;3.72;;;;;;;;;;4839334;29;20033;-85
2022/04/19 11:03:07;;;;;;;6.25;3.35;;;;;;;;;;4842357;29;20057;-85
2022/04/19 11:05:50;;;;;;;7.40;3.50;;;;;;;;;;4842820;29;20057;-86
2022/04/19 11:08:24;;;;;;;6.82;3.47;;;;;;;;;;4857371;29;20029;-86
2022/04/19 11:10:56;;;;;;;6.70;3.00;;;;;;;;;;4852871;29;20061;-81
2022/04/19 11:13:40;;;;;;;7.13;3.03;;;;;;;;;;4859253;29;20068;-81
2022/04/19 11:16:05;;;;;;;6.82;3.10;;;;;;;;;;4860536;29;20479;-80
2022/04/19 11:18:32;;;;;;;6.83;3.30;;;;;;;;;;4838233;29;20065;-87
2022/04/19 11:21:00;;;;;;;5.25;2.95;;;;;;;;;;4854298;29;20315;-81
2022/04/19 11:23:27;;;;;;;7.20;3.20;;;;;;;;;;4857237;29;20037;-80
2022/04/19 11:25:56;;;;;;;5.95;2.88;;;;;;;;;;4857559;29;20026;-85
2022/04/19 11:28:23;;;;;;;6.60;3.08;;;;;;;;;;4852094;29;20029;-81
2022/04/19 11:30:54;;;;;;;8.32;3.20;;;;;;;;;;4837781;29;20086;-88
2022/04/19 11:33:25;;;;;;;7.20;3.45;;;;;;;;;;4851973;29;20095;-86
2022/04/19 11:36:04;;;;;;;7.63;3.25;;;;;;;;;;4854016;29;20120;-76
2022/04/19 11:38:31;;;;;;;6.72;3.20;;;;;;;;;;4856511;29;20116;-77
2022/04/19 11:46:46;;;;;;;5.97;3.05;;;;;;;;;;4850432;29;20180;-76
2022/04/19 11:49:26;;;;;;;6.68;2.90;;;;;;;;;;4856887;29;20029;-78
2022/04/19 11:52:12;;;;;;;6.43;3.10;;;;;;;;;;4856649;29;20393;-80
2022/04/19 11:54:37;;;;;;;6.60;3.22;;;;;;;;;;4856997;29;20025;-76
2022/04/19 11:57:05;;;;;;;6.30;3.03;;;;;;;;;;4857955;29;20022;-76
2022/04/19 11:59:41;;;;;;;7.20;3.00;;;;;;;;;;4854961;29;20029;-77
2022/04/19 12:02:19;;;;;;;6.97;3.35;;;;;;;;;;4844409;29;20034;-77
2022/04/19 12:05:06;;;;;;;7.28;3.55;;;;;;;;;;4849730;29;20030;-79
2022/04/19 12:07:31;;;;;;;6.20;3.15;;;;;;;;;;4854498;29;20059;-80
2022/04/19 12:09:58;;;;;;;6.72;2.90;;;;;;;;;;4855788;29;20025;-77
2022/04/19 12:12:23;;;;;;;6.47;3.17;;;;;;;;;;4852298;29;20026;-76
2022/04/19 12:14:53;;;;;;;6.45;3.30;;;;;;;;;;4854710;29;20040;-81
2022/04/19 12:17:20;;;;;;;5.53;2.92;;;;;;;;;;4852859;29;20037;-80
2022/04/19 12:19:45;;;;;;;6.60;3.33;;;;;;;;;;4851714;29;20029;-80
2022/04/19 12:22:15;;;;;;;5.97;3.17;;;;;;;;;;4854631;29;20044;-81
2022/04/19 12:24:47;;;;;;;6.50;3.55;;;;;;;;;;4854807;29;20029;-77
2022/04/19 12:27:12;;;;;;;7.55;3.45;;;;;;;;;;4851973;29;20026;-79
2022/04/19 12:29:58;;;;;;;7.68;3.30;;;;;;;;;;4855722;29;20044;-77
2022/04/19 12:32:23;;;;;;;7.85;3.20;;;;;;;;;;4852140;29;20021;-79
2022/04/19 12:34:49;;;;;;;7.05;3.55;;;;;;;;;;4851981;29;20034;-76
2022/04/19 12:37:19;;;;;;;8.20;3.53;;;;;;;;;;4854126;29;20059;-80
2022/04/19 12:39:59;;;;;;;8.10;3.42;;;;;;;;;;4852073;29;20117;-77
2022/04/19 12:42:25;;;;;;;7.15;3.60;;;;;;;;;;4850771;29;20040;-76
2022/04/19 12:45:06;;;;;;;5.53;3.17;;;;;;;;;;4855935;29;20029;-80
2022/04/19 12:47:31;;;;;;;8.55;4.00;;;;;;;;;;4841257;29;20382;-77
2022/04/19 12:49:57;;;;;;;7.00;3.38;;;;;;;;;;4853099;29;20025;-79
2022/04/19 12:52:30;;;;;;;6.63;3.33;;;;;;;;;;4854940;29;20400;-76
2022/04/19 12:54:59;;;;;;;6.38;3.17;;;;;;;;;;4851699;29;20057;-77
2022/04/19 12:57:25;;;;;;;7.10;3.55;;;;;;;;;;4853982;29;20026;-77
2022/04/19 12:59:51;;;;;;;6.63;3.42;;;;;;;;;;4851634;29;20361;-78
2022/04/19 13:02:18;;;;;;;7.25;3.30;;;;;;;;;;4849059;29;20572;-80
2022/04/19 13:04:48;;;;;;;5.97;3.35;;;;;;;;;;4851883;29;20032;-81
2022/04/19 13:12:56;;;;;;;6.15;3.00;;;;;;;;;;4853273;29;20568;-77
2022/04/19 13:15:22;;;;;;;6.10;3.35;;;;;;;;;;4837169;29;20041;-78
2022/04/19 13:17:47;;;;;;;6.38;3.15;;;;;;;;;;4853612;29;20036;-78
2022/04/19 13:20:12;;;;;;;6.57;3.28;;;;;;;;;;4829429;29;20033;-78
2022/04/19 13:22:38;;;;;;;8.13;3.50;;;;;;;;;;4823546;29;20090;-80
2022/04/19 13:25:05;;;;;;;6.03;3.30;;;;;;;;;;4842069;29;20093;-77
2022/04/19 13:27:33;;;;;;;7.75;3.33;;;;;;;;;;4844393;29;20040;-79
2022/04/19 13:30:00;;;;;;;5.35;2.97;;;;;;;;;;4844497;29;20094;-78
2022/04/19 13:32:25;;;;;;;6.35;3.33;;;;;;;;;;4825408;29;20038;-78
2022/04/19 13:34:50;;;;;;;4.60;2.40;;;;;;;;;;4845103;29;20420;-77
2022/04/19 13:37:16;;;;;;;6.15;2.92;;;;;;;;;;4841831;29;20036;-79
2022/04/19 13:39:42;;;;;;;5.70;2.85;;;;;;;;;;4839918;29;20066;-81
2022/04/19 13:42:07;;;;;;;6.75;2.92;;;;;;;;;;4823634;29;20041;-78
2022/04/19 13:44:32;;;;;;;5.60;2.85;;;;;;;;;;4837921;29;20033;-79
2022/04/19 13:46:59;;;;;;;5.70;3.30;;;;;;;;;;4824483;29;20038;-80
2022/04/19 13:49:25;;;;;;;6.18;3.10;;;;;;;;;;4843412;29;20029;-77
2022/04/19 13:51:52;;;;;;;5.78;3.05;;;;;;;;;;4843969;29;20029;-81
2022/04/19 13:54:18;;;;;;;4.53;3.00;;;;;;;;;;4844753;29;20033;-77
2022/04/19 13:56:44;;;;;;;4.90;2.88;;;;;;;;;;4847172;29;20036;-80
2022/04/19 13:59:14;;;;;;;5.35;2.97;;;;;;;;;;4847192;29;20042;-79
2022/04/19 14:01:41;;;;;;;4.95;2.75;;;;;;;;;;4847605;29;20033;-77
2022/04/19 14:04:08;;;;;;;4.53;2.60;;;;;;;;;;4831598;29;20041;-79
2022/04/19 14:06:38;;;;;;;4.35;2.50;;;;;;;;;;4849180;29;20040;-76
2022/04/19 14:09:05;;;;;;;5.68;2.60;;;;;;;;;;4848109;29;20105;-77
2022/04/19 14:11:36;;;;;;;5.45;3.45;;;;;;;;;;4854655;29;20033;-77
2022/04/19 14:14:05;;;;;;;5.95;3.28;;;;;;;;;;4847387;29;20040;-79
2022/04/19 14:16:31;;;;;;;7.80;3.00;;;;;;;;;;4844134;29;20056;-79
2022/04/19 14:18:57;;;;;;;4.75;2.97;;;;;;;;;;4853090;29;20714;-78
2022/04/19 14:21:22;;;;;;;3.97;2.38;;;;;;;;;;4848996;29;20045;-80
2022/04/19 14:23:47;;;;;;;5.00;3.10;;;;;;;;;;4842828;29;20037;-78
2022/04/19 14:26:13;;;;;;;5.22;2.50;;;;;;;;;;4846958;29;20026;-78
2022/04/19 14:34:06;;;;;;;3.50;2.15;;;;;;;;;;4843604;29;20074;-80
2022/04/19 14:36:31;;;;;;;4.03;2.30;;;;;;;;;;4847414;29;20040;-81
2022/04/19 14:38:57;;;;;;;3.10;2.17;;;;;;;;;;4833318;29;20030;-79
2022/04/19 14:41:22;;;;;;;3.53;1.90;;;;;;;;;;4848624;29;20036;-78
2022/04/19 14:43:48;;;;;;;4.25;2.30;;;;;;;;;;4848365;29;20080;-78
2022/04/19 14:46:14;;;;;;;4.43;2.63;;;;;;;;;;4848534;29;20040;-80
2022/04/19 14:48:40;;;;;;;4.80;2.42;;;;;;;;;;4852446;29;20056;-79
2022/04/19 14:53:50;;;;;;;3.80;2.25;;;;;;;;;;4844488;29;20052;-79
2022/04/19 14:56:15;;;;;;;4.40;2.42;;;;;;;;;;4846336;29;20030;-77
2022/04/19 14:58:40;;;;;;;4.45;2.30;;;;;;;;;;4841032;29;20041;-79
2022/04/19 15:01:06;;;;;;;3.83;2.45;;;;;;;;;;4832638;29;20045;-78
2022/04/19 15:03:31;;;;;;;4.00;2.42;;;;;;;;;;4829165;29;20377;-78
2022/04/19 15:05:56;;;;;;;5.43;2.50;;;;;;;;;;4844329;29;20040;-81
2022/04/19 15:08:22;;;;;;;5.38;2.45;;;;;;;;;;4847048;29;20037;-78
2022/04/19 15:10:47;;;;;;;5.55;2.80;;;;;;;;;;4848052;29;20513;-77
2022/04/19 15:13:12;;;;;;;6.60;2.92;;;;;;;;;;4843036;29;20040;-78
2022/04/19 15:15:37;;;;;;;7.28;2.40;;;;;;;;;;4825878;29;20392;-79
2022/04/19 15:18:05;;;;;;;4.05;2.17;;;;;;;;;;4844785;29;20045;-79
2022/04/19 15:20:31;;;;;;;3.85;2.40;;;;;;;;;;4844741;29;20094;-80
2022/04/19 15:22:56;;;;;;;3.92;2.40;;;;;;;;;;4843562;29;20072;-78
2022/04/19 15:25:22;;;;;;;5.07;2.38;;;;;;;;;;4851037;29;20061;-79
2022/04/19 15:27:47;;;;;;;5.22;2.85;;;;;;;;;;4845667;29;20417;-78
2022/04/19 15:30:12;;;;;;;4.30;2.88;;;;;;;;;;4845861;29;20093;-77